createdAt,value
2022-08-16T00:00:03.432Z,58.03
2022-08-16T00:03:07.562Z,58.89
2022-08-16T00:06:16.187Z,58.72
2022-08-16T00:09:18.373Z,58.22
2022-08-16T00:12:20.936Z,57.70
2022-08-16T00:15:52.025Z,57.34
2022-08-16T00:18:55.356Z,57.57
2022-08-16T00:22:03.115Z,57.96
2022-08-16T00:25:13.462Z,58.03
2022-08-16T00:28:15.746Z,58.01
2022-08-16T00:31:18.366Z,57.91
2022-08-16T00:34:41.906Z,58.18
2022-08-16T00:37:58.690Z,59.26
2022-08-16T00:41:02.342Z,59.70
2022-08-16T00:44:11.138Z,59.25
2022-08-16T00:47:18.409Z,59.49
2022-08-16T00:50:36.474Z,59.27
2022-08-16T00:53:39.657Z,59.38
2022-08-16T00:56:58.396Z,59.62
2022-08-16T01:00:05.067Z,60.54
2022-08-16T01:03:15.193Z,61.29
2022-08-16T01:06:40.411Z,61.62
2022-08-16T01:09:43.111Z,61.42
2022-08-16T01:12:45.480Z,61.79
2022-08-16T01:16:10.794Z,61.62
2022-08-16T01:19:29.373Z,61.85
2022-08-16T01:22:48.140Z,61.36
2022-08-16T01:26:00.237Z,61.21
2022-08-16T01:29:56.949Z,62.46
2022-08-16T01:33:01.424Z,62.92
2022-08-16T01:36:12.154Z,62.87
2022-08-16T01:39:17.560Z,61.73
2022-08-16T01:42:21.066Z,60.90
2022-08-16T01:45:40.565Z,59.68
2022-08-16T01:48:46.212Z,59.46
2022-08-16T01:51:55.037Z,59.81
2022-08-16T01:54:59.550Z,59.89
2022-08-16T01:58:02.461Z,59.32
2022-08-16T02:01:08.190Z,59.54
2022-08-16T02:04:11.638Z,59.74
2022-08-16T02:07:18.304Z,59.95
2022-08-16T02:10:21.660Z,60.02
2022-08-16T02:13:32.759Z,60.18
2022-08-16T02:16:35.894Z,60.48
2022-08-16T02:19:59.049Z,60.50
2022-08-16T02:23:05.956Z,60.33
2022-08-16T02:26:08.524Z,60.56
2022-08-16T02:29:12.948Z,60.61
2022-08-16T02:32:50.648Z,61.13
2022-08-16T02:35:49.626Z,61.22
2022-08-16T02:38:57.642Z,61.33
2022-08-16T02:42:00.497Z,61.95
2022-08-16T02:45:02.986Z,61.48
2022-08-16T02:48:29.965Z,61.42
2022-08-16T02:51:31.447Z,61.62
2022-08-16T02:54:35.027Z,61.92
2022-08-16T02:57:42.329Z,62.55
2022-08-16T03:00:57.718Z,62.24
2022-08-16T03:04:41.352Z,62.41
2022-08-16T03:07:27.702Z,62.26
2022-08-16T03:10:33.310Z,62.18
2022-08-16T03:13:40.006Z,62.27
2022-08-16T03:16:59.175Z,62.85
2022-08-16T03:20:06.396Z,62.47
2022-08-16T03:23:09.391Z,63.37
2022-08-16T03:26:13.498Z,63.42
2022-08-16T03:29:16.358Z,63.21
2022-08-16T03:32:19.078Z,63.35
2022-08-16T03:35:32.588Z,63.37
2022-08-16T03:38:36.980Z,63.19
2022-08-16T03:41:50.796Z,64.31
2022-08-16T03:45:03.372Z,65.47
2022-08-16T03:48:10.557Z,64.22
2022-08-16T03:51:23.606Z,64.13
2022-08-16T03:54:28.788Z,63.97
2022-08-16T03:57:36.656Z,63.98
2022-08-16T04:00:41.351Z,64.01
2022-08-16T04:03:45.342Z,63.03
2022-08-16T04:06:48.558Z,62.35
2022-08-16T04:09:54.428Z,62.62
2022-08-16T04:13:04.456Z,61.15
2022-08-16T04:16:08.780Z,60.10
2022-08-16T04:19:12.064Z,59.41
2022-08-16T04:22:17.409Z,61.67
2022-08-16T04:25:22.718Z,60.41
2022-08-16T04:28:51.967Z,60.94
2022-08-16T04:31:56.913Z,61.18
2022-08-16T04:35:07.616Z,64.33
2022-08-16T04:38:21.364Z,61.54
2022-08-16T04:41:32.948Z,57.12
2022-08-16T04:44:53.330Z,56.67
2022-08-16T04:48:00.140Z,56.34
2022-08-16T04:51:11.565Z,56.50
2022-08-16T04:54:15.682Z,57.22
2022-08-16T04:57:22.664Z,56.66
2022-08-16T05:00:34.138Z,54.98
2022-08-16T05:03:41.980Z,56.06
2022-08-16T05:07:02.188Z,56.05
2022-08-16T05:10:19.593Z,55.30
2022-08-16T05:13:25.344Z,54.74
2022-08-16T05:16:45.441Z,55.62
2022-08-16T05:19:57.338Z,55.55
2022-08-16T05:23:01.072Z,57.28
2022-08-16T05:26:04.861Z,60.08
2022-08-16T05:29:11.018Z,62.45
2022-08-16T05:32:32.338Z,65.76
2022-08-16T05:35:37.085Z,69.42
2022-08-16T05:38:40.915Z,72.69
2022-08-16T05:41:45.201Z,74.22
2022-08-16T05:44:49.374Z,66.65
2022-08-16T05:47:59.985Z,64.90
2022-08-16T05:51:06.304Z,66.42
2022-08-16T05:54:14.196Z,66.00
2022-08-16T05:57:18.934Z,66.09
2022-08-16T06:00:25.133Z,62.38
2022-08-16T06:03:29.667Z,62.90
2022-08-16T06:06:32.518Z,62.23
2022-08-16T06:09:43.427Z,59.32
2022-08-16T06:12:46.551Z,57.73
2022-08-16T06:15:55.535Z,55.99
2022-08-16T06:19:00.445Z,53.45
2022-08-16T06:22:08.766Z,53.19
2022-08-16T06:25:13.398Z,53.31
2022-08-16T06:28:35.869Z,52.59
2022-08-16T06:31:46.906Z,51.23
2022-08-16T06:34:56.885Z,49.09
2022-08-16T06:38:05.745Z,47.27
2022-08-16T06:41:28.250Z,48.84
2022-08-16T06:44:45.485Z,48.19
2022-08-16T06:47:53.323Z,47.03
2022-08-16T06:50:58.253Z,47.75
2022-08-16T06:54:01.591Z,46.22
2022-08-16T06:57:05.443Z,40.61
2022-08-16T07:00:24.634Z,34.72
2022-08-16T07:03:32.438Z,32.34
2022-08-16T07:06:51.612Z,33.11
2022-08-16T07:09:55.074Z,37.27
2022-08-16T07:13:03.920Z,39.81
2022-08-16T07:16:31.206Z,43.36
2022-08-16T07:20:03.991Z,44.66
2022-08-16T07:22:59.192Z,43.31
2022-08-16T07:26:02.452Z,43.97
2022-08-16T07:29:05.015Z,43.84
2022-08-16T07:32:10.818Z,42.22
2022-08-16T07:35:13.371Z,41.25
2022-08-16T07:38:20.088Z,40.07
2022-08-16T07:41:37.378Z,40.37
2022-08-16T07:44:50.364Z,40.62
2022-08-16T07:47:53.435Z,41.06
2022-08-16T07:50:59.240Z,40.25
2022-08-16T07:54:09.986Z,40.54
2022-08-16T07:57:14.660Z,40.19
2022-08-16T08:00:26.449Z,41.45
2022-08-16T08:03:39.384Z,41.77
2022-08-16T08:06:45.115Z,41.20
2022-08-16T08:09:48.013Z,40.64
2022-08-16T08:12:55.040Z,39.58
2022-08-16T08:15:57.811Z,40.60
2022-08-16T08:19:02.454Z,39.14
2022-08-16T08:22:06.459Z,40.42
2022-08-16T08:25:09.624Z,39.78
2022-08-16T08:28:18.542Z,39.63
2022-08-16T08:31:23.402Z,38.78
2022-08-16T08:34:25.990Z,38.03
2022-08-16T08:37:54.443Z,37.92
2022-08-16T08:40:51.704Z,37.10
2022-08-16T08:43:53.892Z,36.86
2022-08-16T08:47:00.771Z,36.97
2022-08-16T08:50:06.938Z,37.50
2022-08-16T08:53:11.609Z,37.47
2022-08-16T08:56:23.143Z,37.00
2022-08-16T08:59:29.234Z,37.29
2022-08-16T09:02:31.695Z,38.41
2022-08-16T09:05:36.055Z,37.72
2022-08-16T09:08:40.470Z,38.04
2022-08-16T09:12:00.286Z,37.77
2022-08-16T09:15:11.477Z,36.46
2022-08-16T09:18:24.918Z,37.29
2022-08-16T09:21:31.482Z,37.09
2022-08-16T09:24:46.910Z,36.21
2022-08-16T09:27:58.070Z,35.51
2022-08-16T09:31:05.926Z,34.45
2022-08-16T09:34:08.299Z,33.77
2022-08-16T09:37:18.075Z,32.95
2022-08-16T09:40:31.924Z,33.62
2022-08-16T09:43:59.249Z,32.91
2022-08-16T09:47:03.437Z,32.69
2022-08-16T09:50:13.664Z,29.46
2022-08-16T09:53:26.748Z,23.92
2022-08-16T09:56:33.712Z,21.56
2022-08-16T09:59:38.455Z,22.99
2022-08-16T10:02:44.473Z,23.37
2022-08-16T10:05:50.976Z,22.61
2022-08-16T10:09:05.159Z,22.78
2022-08-16T10:12:28.188Z,24.09
2022-08-16T10:15:31.414Z,23.25
2022-08-16T10:18:56.559Z,20.77
2022-08-16T10:21:57.169Z,19.54
2022-08-16T10:25:00.714Z,17.40
2022-08-16T10:28:27.629Z,17.29
2022-08-16T10:31:44.412Z,17.65
2022-08-16T10:34:51.469Z,16.60
2022-08-16T10:37:54.995Z,17.80
2022-08-16T10:40:57.106Z,17.87
2022-08-16T10:44:00.221Z,17.47
2022-08-16T10:47:02.564Z,18.61
2022-08-16T10:50:06.996Z,17.60
2022-08-16T10:53:21.875Z,17.41
2022-08-16T10:56:55.763Z,17.18
2022-08-16T10:59:56.118Z,17.55
2022-08-16T11:03:04.873Z,17.47
2022-08-16T11:06:12.014Z,16.58
2022-08-16T11:09:25.594Z,16.07
2022-08-16T11:12:31.072Z,16.10
2022-08-16T11:15:35.378Z,16.02
2022-08-16T11:18:48.371Z,15.94
2022-08-16T11:22:38.897Z,16.39
2022-08-16T11:32:13.094Z,21.60
2022-08-16T11:38:55.484Z,24.54
2022-08-16T11:42:00.811Z,28.84
2022-08-16T11:45:04.888Z,29.80
2022-08-16T11:48:09.326Z,31.00
2022-08-16T11:51:11.769Z,31.02
2022-08-16T11:54:20.806Z,30.00
2022-08-16T11:57:24.010Z,32.41
2022-08-16T12:00:33.891Z,35.40
2022-08-16T12:03:52.266Z,36.63
2022-08-16T12:06:54.984Z,36.35
2022-08-16T12:09:57.390Z,42.46
2022-08-16T12:13:02.790Z,42.82
2022-08-16T12:16:08.207Z,44.44
2022-08-16T12:19:13.800Z,40.74
2022-08-16T12:22:18.646Z,40.01
2022-08-16T12:25:24.354Z,36.53
2022-08-16T12:28:54.096Z,31.93
2022-08-16T12:32:01.336Z,28.82
2022-08-16T12:35:18.611Z,25.15
2022-08-16T12:38:41.223Z,22.48
2022-08-16T12:41:46.255Z,21.72
2022-08-16T12:44:50.272Z,22.03
2022-08-16T12:48:32.986Z,19.83
2022-08-16T12:51:59.403Z,20.27
2022-08-16T12:55:04.185Z,22.68
2022-08-16T12:58:13.740Z,23.98
2022-08-16T13:01:19.622Z,25.28
2022-08-16T13:04:25.684Z,27.46
2022-08-16T13:07:28.188Z,28.44
2022-08-16T13:10:41.076Z,30.80
2022-08-16T13:13:43.558Z,31.97
2022-08-16T13:16:47.932Z,32.85
2022-08-16T13:20:07.070Z,32.48
2022-08-16T13:23:11.823Z,34.03
2022-08-16T13:26:18.972Z,32.63
2022-08-16T13:29:21.170Z,31.54
2022-08-16T13:32:40.673Z,30.45
2022-08-16T13:35:56.260Z,29.21
2022-08-16T13:39:02.055Z,27.11
2022-08-16T13:42:09.917Z,26.09
2022-08-16T13:45:15.831Z,26.28
2022-08-16T13:48:24.944Z,26.51
2022-08-16T13:51:30.862Z,25.97
2022-08-16T13:54:33.643Z,25.57
2022-08-16T13:58:34.169Z,24.81
2022-08-16T14:00:59.665Z,25.26
2022-08-16T14:04:02.213Z,25.01
2022-08-16T14:07:07.827Z,26.00
2022-08-16T14:10:12.911Z,25.64
2022-08-16T14:13:19.922Z,25.49
2022-08-16T14:16:33.771Z,26.75
2022-08-16T14:19:36.439Z,26.81
2022-08-16T14:22:42.627Z,28.02
2022-08-16T14:25:45.857Z,28.51
2022-08-16T14:28:59.981Z,28.32
2022-08-16T14:32:08.052Z,27.61
2022-08-16T14:35:15.892Z,27.40
2022-08-16T14:38:23.728Z,26.72
2022-08-16T14:41:28.593Z,26.99
2022-08-16T14:44:30.694Z,26.85
2022-08-16T14:47:37.053Z,26.71
2022-08-16T14:50:39.527Z,26.17
2022-08-16T14:53:45.207Z,25.65
2022-08-16T14:56:55.039Z,25.39
2022-08-16T15:00:02.006Z,26.13
2022-08-16T15:03:10.654Z,29.57
2022-08-16T15:06:14.575Z,32.71
2022-08-16T15:09:18.571Z,35.97
2022-08-16T15:12:26.541Z,52.84
2022-08-16T15:15:33.650Z,58.31
2022-08-16T15:18:39.334Z,76.60
2022-08-16T15:21:42.321Z,74.57
2022-08-16T15:24:45.083Z,79.48
2022-08-16T15:27:55.045Z,84.92
2022-08-16T15:31:00.971Z,76.81
2022-08-16T15:34:06.264Z,93.23
2022-08-16T15:37:08.637Z,74.04
2022-08-16T15:40:26.651Z,70.90
2022-08-16T15:43:39.964Z,74.61
2022-08-16T15:46:56.646Z,73.05
2022-08-16T15:50:02.333Z,66.96
2022-08-16T15:53:16.492Z,63.15
2022-08-16T15:56:20.167Z,65.81
2022-08-16T15:59:27.089Z,54.98
2022-08-16T16:02:31.480Z,58.12
2022-08-16T16:05:39.836Z,55.72
2022-08-16T16:08:42.127Z,52.43
2022-08-16T16:11:45.717Z,52.52
2022-08-16T16:14:48.581Z,48.06
2022-08-16T16:17:54.524Z,54.62
2022-08-16T16:21:04.365Z,52.21
2022-08-16T16:24:21.160Z,52.43
2022-08-16T16:27:26.408Z,53.32
2022-08-16T16:30:37.235Z,49.83
2022-08-16T16:33:51.204Z,54.04
2022-08-16T16:36:54.392Z,58.51
2022-08-16T16:39:56.884Z,60.36
2022-08-16T16:43:02.308Z,61.81
2022-08-16T16:46:40.984Z,63.34
2022-08-16T16:49:28.298Z,61.68
2022-08-16T16:52:43.412Z,59.66
2022-08-16T16:55:52.105Z,59.10
2022-08-16T16:59:01.229Z,61.49
2022-08-16T17:02:41.117Z,61.74
2022-08-16T17:05:29.282Z,51.02
2022-08-16T17:08:35.220Z,61.72
2022-08-16T17:11:40.906Z,60.79
2022-08-16T17:14:43.463Z,50.17
2022-08-16T17:17:59.979Z,46.22
2022-08-16T17:21:04.700Z,52.02
2022-08-16T17:24:17.849Z,49.39
2022-08-16T17:27:33.232Z,51.22
2022-08-16T17:30:45.028Z,45.61
2022-08-16T17:37:10.463Z,45.49
2022-08-16T17:39:27.126Z,46.08
2022-08-16T17:40:25.359Z,48.61
2022-08-16T17:43:44.587Z,48.59
2022-08-16T17:46:52.077Z,49.41
2022-08-16T17:49:54.870Z,53.10
2022-08-16T17:52:57.463Z,49.65
2022-08-16T17:56:00.433Z,49.52
2022-08-16T17:59:02.907Z,51.48
2022-08-16T18:02:42.805Z,50.26
2022-08-16T18:05:29.548Z,50.02
2022-08-16T18:08:32.192Z,50.07
2022-08-16T18:11:40.974Z,50.22
2022-08-16T18:14:52.354Z,51.11
2022-08-16T18:17:56.432Z,50.89
2022-08-16T18:21:17.088Z,53.54
2022-08-16T18:24:20.009Z,55.19
2022-08-16T18:27:26.782Z,56.79
2022-08-16T18:30:29.788Z,54.68
2022-08-16T18:33:33.620Z,53.54
2022-08-16T18:36:45.598Z,52.64
2022-08-16T18:39:47.757Z,50.97
2022-08-16T18:43:04.523Z,52.33
2022-08-16T18:46:06.796Z,51.28
2022-08-16T18:49:09.752Z,50.43
2022-08-16T18:52:25.083Z,52.59
2022-08-16T18:55:33.553Z,50.69
2022-08-16T18:58:35.918Z,54.08
2022-08-16T19:01:38.373Z,52.19
2022-08-16T19:04:57.437Z,52.39
2022-08-16T19:08:02.169Z,52.71
2022-08-16T19:11:06.710Z,55.22
2022-08-16T19:14:10.226Z,56.52
2022-08-16T19:17:12.509Z,57.61
2022-08-16T19:20:17.991Z,57.83
2022-08-16T19:23:24.212Z,57.50
2022-08-16T19:26:26.816Z,59.68
2022-08-16T19:29:29.048Z,57.96
2022-08-16T19:32:31.513Z,56.20
2022-08-16T19:35:34.082Z,59.45
2022-08-16T19:38:36.572Z,57.24
2022-08-16T19:41:53.160Z,60.73
2022-08-16T19:44:58.857Z,63.52
2022-08-16T19:48:03.605Z,60.20
2022-08-16T19:51:06.166Z,59.83
2022-08-16T19:54:08.276Z,58.71
2022-08-16T19:57:11.190Z,57.84
2022-08-16T20:00:15.871Z,60.12
2022-08-16T20:03:21.271Z,60.59
2022-08-16T20:06:37.743Z,60.66
2022-08-16T20:09:41.973Z,62.93
2022-08-16T20:13:01.966Z,63.23
2022-08-16T20:16:05.181Z,62.37
2022-08-16T20:19:07.372Z,66.00
2022-08-16T20:22:49.798Z,65.67
2022-08-16T20:25:50.109Z,66.47
2022-08-16T20:28:54.892Z,67.94
2022-08-16T20:31:57.711Z,68.16
2022-08-16T20:35:01.301Z,70.60
2022-08-16T20:38:04.217Z,69.37
2022-08-16T20:41:06.525Z,72.19
2022-08-16T20:44:11.338Z,71.56
2022-08-16T20:47:14.464Z,72.09
2022-08-16T20:50:16.579Z,74.80
2022-08-16T20:53:19.031Z,72.73
2022-08-16T20:56:21.267Z,74.21
2022-08-16T20:59:23.805Z,75.00
2022-08-16T21:02:27.045Z,71.45
2022-08-16T21:05:31.849Z,73.30
2022-08-16T21:08:51.873Z,74.26
2022-08-16T21:11:57.693Z,73.76
2022-08-16T21:15:06.131Z,74.15
2022-08-16T21:18:08.565Z,75.73
2022-08-16T21:21:12.052Z,74.92
2022-08-16T21:24:14.685Z,73.79
2022-08-16T21:27:17.752Z,72.74
2022-08-16T21:30:23.022Z,73.12
2022-08-16T21:33:30.084Z,72.10
2022-08-16T21:36:34.637Z,67.96
2022-08-16T21:39:39.196Z,68.26
2022-08-16T21:42:42.607Z,72.44
2022-08-16T21:45:46.275Z,72.39
2022-08-16T21:48:48.651Z,72.86
2022-08-16T21:51:51.389Z,73.71
2022-08-16T21:54:56.605Z,72.85
2022-08-16T21:57:59.295Z,74.38
2022-08-16T22:01:02.871Z,74.02
2022-08-16T22:04:36.773Z,70.54
2022-08-16T22:07:27.426Z,69.32
2022-08-16T22:11:06.241Z,69.33
2022-08-16T22:13:58.793Z,72.41
2022-08-16T22:17:01.906Z,73.67
2022-08-16T22:20:05.939Z,72.72
2022-08-16T22:23:21.966Z,73.70
2022-08-16T22:26:31.046Z,75.16
2022-08-16T22:29:34.106Z,73.35
2022-08-16T22:32:44.147Z,72.16
2022-08-16T22:35:55.014Z,72.49
2022-08-16T22:38:59.375Z,72.96
2022-08-16T22:42:08.176Z,70.91
2022-08-16T22:45:11.367Z,71.36
2022-08-16T22:48:15.963Z,71.32
2022-08-16T22:51:20.135Z,70.21
2022-08-16T22:54:47.342Z,70.30
2022-08-16T22:57:44.858Z,71.31
2022-08-16T23:00:47.252Z,71.58
2022-08-16T23:03:49.465Z,69.40
2022-08-16T23:06:52.271Z,72.94
2022-08-16T23:09:55.103Z,71.56
2022-08-16T23:13:04.421Z,73.43
2022-08-16T23:16:11.418Z,74.16
2022-08-16T23:19:15.895Z,73.69
2022-08-16T23:22:17.992Z,73.37
2022-08-16T23:25:33.247Z,74.97
2022-08-16T23:28:35.774Z,76.22
2022-08-16T23:31:38.366Z,75.29
2022-08-16T23:34:40.890Z,76.24
2022-08-16T23:37:43.841Z,77.96
2022-08-16T23:40:46.290Z,77.86
2022-08-16T23:43:48.993Z,77.00
2022-08-16T23:46:51.146Z,76.78
2022-08-16T23:50:00.471Z,76.33
2022-08-16T23:53:10.547Z,76.70
2022-08-16T23:56:17.803Z,76.81
2022-08-16T23:59:19.943Z,76.79
